Main page
METAR-TAF:

METAR-TAF

Airports :

Tefé Airport

Tefé, Amazonas, Brazil

latitude: 03-22S, longitude: 064-41W, elevation: 47 m

Current weather observation

The report was made 11 hours and 23 minutes ago, at 22:45 UTC
Wind 2 kt from the South/Southwest
Temperature 26°C
Humidity 94%
Pressure 1007 hPa
Visibility 10 km or more
Scattered clouds at a height of 1200 ft
Few clouds at a height of 2500 ft, Towering cumulus.

METAR: SBTF 132245Z 20002KT 9999 SCT012 FEW025TCU 26/25 Q1007

Time: 06:08 (10:08 UTC)

Forecast

The report was made 7 hours and 8 minutes ago, at 03:00 UTC
Forecast valid from 14 at 06 UTC to 14 at 18 UTC
Wind 5 kt from the West
Visibility 10 km or more
Scattered clouds at a height of 2000 ft
Becoming
from 14 at 09 UTC to 14 at 11 UTC
Wind 5 kt from the East/Southeast
Becoming
from 14 at 14 UTC to 14 at 16 UTC
Wind 5 kt from the West
Scattered clouds at a height of 1500 ft

TAF: SBTF 140300Z 1406/1418 27005KT 9999 SCT020 TN24/1408Z TX27/1417Z BECMG 1409/1411 12005KT BECMG 1414/1416 27005KT SCT015 RMK PGY

Weather observations and forecasts of more than 4000 airports (METAR and TAF reports).

The available stations are represented by yellow and red dots on the map.

Hover mouse over dot to see the name of the station.

Then click to see weather observations and forecasts.

To change the map : click on the green buttons with a black cross to zoom in, on the green button with a dash to zoom out, or on the green arrows for adjacent maps.


METAR-TAF: